Time;durP1;ratioP1;P1;durP2;ratioP2;P2;SDS_P1;SDS_P2;PMS_P1;PMS_P2;Temp;Humidity;BMP_temperature;BMP_pressure;BME280_temperature;BME280_humidity;BME280_pressure;Samples;Min_cycle;Max_cycle;Signal;HPM_P1;HPM_P2
2023/06/28 00:00:55;;;;;;;;;5.67;4.00;;;;;;;;1994664;28;2747188;-78
2023/06/28 00:02:10;;;;;;;;;7.00;4.00;;;;;;;;2004170;28;2742294;-78
2023/06/28 00:03:20;;;;;;;;;5.00;4.00;;;;;;;;1977791;28;2754532;-78
2023/06/28 00:04:31;;;;;;;;;3.33;3.33;;;;;;;;1994015;28;2738334;-78
2023/06/28 00:05:42;;;;;;;;;5.00;4.33;;;;;;;;1991117;28;2752497;-79
2023/06/28 00:06:53;;;;;;;;;4.00;4.00;;;;;;;;1990031;28;2744019;-79
2023/06/28 00:08:04;;;;;;;;;8.00;4.00;;;;;;;;1991467;28;2746181;-81
2023/06/28 00:09:14;;;;;;;;;4.33;3.67;;;;;;;;1984157;28;3462765;-82
2023/06/28 00:10:25;;;;;;;;;4.00;4.00;;;;;;;;1992493;28;2751292;-80
2023/06/28 00:11:36;;;;;;;;;6.00;4.00;;;;;;;;1999678;28;2750314;-81
2023/06/28 00:12:47;;;;;;;;;6.00;5.33;;;;;;;;1995115;28;2742012;-80
2023/06/28 00:13:58;;;;;;;;;5.00;5.00;;;;;;;;1995767;28;2748190;-80
2023/06/28 00:15:09;;;;;;;;;5.33;3.00;;;;;;;;1997331;28;2748791;-81
2023/06/28 00:16:21;;;;;;;;;2.75;2.75;;;;;;;;1996028;28;2751344;-81
2023/06/28 00:17:31;;;;;;;;;3.67;3.67;;;;;;;;1971886;28;3461703;-80
2023/06/28 00:18:45;;;;;;;;;2.67;2.33;;;;;;;;2001374;28;2749216;-80
2023/06/28 00:19:59;;;;;;;;;4.67;4.00;;;;;;;;1979769;28;2749298;-80
2023/06/28 00:21:13;;;;;;;;;6.00;4.00;;;;;;;;1979666;28;2744083;-80
2023/06/28 00:22:28;;;;;;;;;2.67;2.67;;;;;;;;1979765;28;2741957;-80
2023/06/28 00:23:39;;;;;;;;;5.00;3.67;;;;;;;;1970987;28;2754492;-80
2023/06/28 00:24:50;;;;;;;;;2.00;2.00;;;;;;;;1988845;28;2747164;-78
2023/06/28 00:26:00;;;;;;;;;4.00;4.00;;;;;;;;1970251;28;2748266;-78
2023/06/28 00:27:11;;;;;;;;;3.00;3.00;;;;;;;;1984392;28;2733611;-78
2023/06/28 00:28:22;;;;;;;;;3.00;3.00;;;;;;;;2002265;28;1821127;-78
2023/06/28 00:29:33;;;;;;;;;4.00;4.00;;;;;;;;1948194;28;2750301;-78
2023/06/28 00:30:44;;;;;;;;;4.67;4.00;;;;;;;;1997626;28;2746122;-78
2023/06/28 00:31:54;;;;;;;;;4.33;3.33;;;;;;;;1978122;28;2754447;-78
2023/06/28 00:33:05;;;;;;;;;6.67;3.67;;;;;;;;1990699;28;2748252;-78
2023/06/28 00:34:16;;;;;;;;;8.00;4.00;;;;;;;;1987487;28;2750703;-76
2023/06/28 00:35:27;;;;;;;;;2.00;1.00;;;;;;;;1999578;28;2734729;-77
2023/06/28 00:36:39;;;;;;;;;3.60;2.00;;;;;;;;1996722;28;2741941;-77
2023/06/28 00:37:49;;;;;;;;;7.33;4.00;;;;;;;;1954937;28;2746123;-78
2023/06/28 00:39:00;;;;;;;;;4.67;3.33;;;;;;;;2002137;28;2746123;-79
2023/06/28 00:40:11;;;;;;;;;6.00;3.00;;;;;;;;1988696;28;2749321;-79
2023/06/28 00:41:22;;;;;;;;;6.33;2.33;;;;;;;;1996553;28;2744044;-78
2023/06/28 00:42:34;;;;;;;;;5.40;4.20;;;;;;;;2004101;28;2736729;-78
2023/06/28 00:43:48;;;;;;;;;4.33;4.33;;;;;;;;1968298;28;2745051;-79
2023/06/28 00:44:59;;;;;;;;;5.33;3.33;;;;;;;;1940962;28;3470075;-79
2023/06/28 00:46:09;;;;;;;;;4.67;4.00;;;;;;;;1973908;28;2739868;-77
2023/06/28 00:47:21;;;;;;;;;4.00;4.00;;;;;;;;1994783;28;2744047;-78
2023/06/28 00:48:32;;;;;;;;;4.00;4.00;;;;;;;;1963995;28;2752351;-77
2023/06/28 00:49:44;;;;;;;;;3.25;3.25;;;;;;;;1986952;28;2740903;-81
2023/06/28 00:50:54;;;;;;;;;3.00;3.00;;;;;;;;1945741;28;2750248;-77
2023/06/28 00:52:06;;;;;;;;;4.67;4.00;;;;;;;;1990950;28;2754561;-76
2023/06/28 00:53:16;;;;;;;;;5.00;4.33;;;;;;;;1978539;28;2752492;-80
2023/06/28 00:54:27;;;;;;;;;5.67;3.67;;;;;;;;1985029;28;2750382;-80
2023/06/28 00:55:38;;;;;;;;;6.00;4.00;;;;;;;;1988423;28;2754604;-79
2023/06/28 00:56:50;;;;;;;;;4.00;3.00;;;;;;;;1990849;28;2752928;-79
2023/06/28 00:58:03;;;;;;;;;2.00;2.00;;;;;;;;2002926;28;2730526;-79
2023/06/28 00:59:14;;;;;;;;;3.33;3.00;;;;;;;;1963892;28;1823231;-79
2023/06/28 01:00:26;;;;;;;;;3.00;3.00;;;;;;;;1947176;28;2750740;-79
2023/06/28 01:01:39;;;;;;;;;2.50;1.67;;;;;;;;1998416;28;2732558;-79
2023/06/28 01:02:49;;;;;;;;;3.67;3.00;;;;;;;;1954487;28;2741971;-79
2023/06/28 01:04:02;;;;;;;;;4.00;4.00;;;;;;;;1994931;28;2754538;-79
2023/06/28 01:05:15;;;;;;;;;6.00;6.00;;;;;;;;1971248;28;2738895;-79
2023/06/28 01:06:25;;;;;;;;;4.00;4.00;;;;;;;;1963608;28;3462726;-78
2023/06/28 01:07:37;;;;;;;;;2.67;2.67;;;;;;;;1983955;28;2735683;-78
2023/06/28 01:08:48;;;;;;;;;3.00;3.00;;;;;;;;1979196;28;2742994;-78
2023/06/28 01:10:02;;;;;;;;;4.67;3.50;;;;;;;;1996895;28;2750285;-78
2023/06/28 01:11:12;;;;;;;;;3.33;3.33;;;;;;;;1953106;28;2747168;-78
2023/06/28 01:12:24;;;;;;;;;5.00;5.00;;;;;;;;1997559;28;2750414;-78
2023/06/28 01:13:37;;;;;;;;;3.00;3.00;;;;;;;;1997899;28;2729495;-78
2023/06/28 01:14:47;;;;;;;;;6.00;4.00;;;;;;;;1952881;28;2749321;-78
2023/06/28 01:15:58;;;;;;;;;4.33;3.00;;;;;;;;1995369;28;2739885;-78
2023/06/28 01:17:09;;;;;;;;;6.67;4.33;;;;;;;;1972068;28;3460673;-78
2023/06/28 01:18:21;;;;;;;;;3.00;3.00;;;;;;;;2000514;28;2741995;-79
2023/06/28 01:19:32;;;;;;;;;4.67;4.33;;;;;;;;1979114;28;2750265;-80
2023/06/28 01:20:42;;;;;;;;;3.33;3.33;;;;;;;;1968420;28;2740991;-79
2023/06/28 01:21:57;;;;;;;;;3.33;1.33;;;;;;;;1996610;28;2730485;-80
2023/06/28 01:23:10;;;;;;;;;3.33;3.33;;;;;;;;2005272;28;2735691;-80
2023/06/28 01:24:21;;;;;;;;;3.00;3.00;;;;;;;;1956366;28;2746212;-81
2023/06/28 01:25:32;;;;;;;;;5.67;3.67;;;;;;;;1979692;28;3466916;-82
2023/06/28 01:26:43;;;;;;;;;4.67;3.33;;;;;;;;1983529;28;2752440;-81
2023/06/28 01:27:54;;;;;;;;;4.00;4.00;;;;;;;;1984558;28;2752449;-81
2023/06/28 01:29:05;;;;;;;;;6.00;3.00;;;;;;;;1974615;28;2748192;-81
2023/06/28 01:30:16;;;;;;;;;3.67;3.67;;;;;;;;1978437;28;2746095;-81
2023/06/28 01:31:26;;;;;;;;;6.00;4.00;;;;;;;;1978567;28;2741961;-82
2023/06/28 01:32:39;;;;;;;;;3.60;3.60;;;;;;;;2004870;28;2739861;-80
2023/06/28 01:33:52;;;;;;;;;4.00;4.00;;;;;;;;1982432;28;2741272;-81
2023/06/28 01:35:02;;;;;;;;;3.67;3.67;;;;;;;;1957006;28;2741969;-80
2023/06/28 01:36:13;;;;;;;;;6.33;5.00;;;;;;;;1987877;28;2748189;-80
2023/06/28 01:37:24;;;;;;;;;4.00;3.00;;;;;;;;1981168;28;2754519;-80
2023/06/28 01:38:36;;;;;;;;;5.00;3.33;;;;;;;;1991947;28;2746111;-80
2023/06/28 01:39:46;;;;;;;;;4.00;4.00;;;;;;;;1976916;28;2754504;-81
2023/06/28 01:40:58;;;;;;;;;5.00;3.67;;;;;;;;1993911;28;2752337;-80
2023/06/28 01:42:08;;;;;;;;;5.67;3.33;;;;;;;;1971543;28;2748222;-80
2023/06/28 01:43:20;;;;;;;;;4.33;4.33;;;;;;;;1974842;28;2746191;-80
2023/06/28 01:44:31;;;;;;;;;6.00;4.00;;;;;;;;1962779;28;3463807;-80
2023/06/28 01:45:41;;;;;;;;;6.33;5.00;;;;;;;;1972340;28;2746631;-80
2023/06/28 01:46:53;;;;;;;;;3.33;3.33;;;;;;;;1991617;28;2746100;-80
2023/06/28 01:48:03;;;;;;;;;4.00;3.67;;;;;;;;1987234;28;2754489;-80
2023/06/28 01:49:15;;;;;;;;;4.75;4.75;;;;;;;;2003473;28;2736192;-80
2023/06/28 01:50:26;;;;;;;;;4.67;3.00;;;;;;;;1970966;28;2750257;-80
2023/06/28 01:51:36;;;;;;;;;5.67;4.00;;;;;;;;1975720;28;3465862;-81
2023/06/28 01:52:47;;;;;;;;;5.00;3.33;;;;;;;;1990673;28;2749297;-80
2023/06/28 01:53:58;;;;;;;;;5.00;3.33;;;;;;;;1995980;28;2741225;-80
2023/06/28 01:55:10;;;;;;;;;5.00;5.00;;;;;;;;1970129;28;2746162;-80
2023/06/28 01:56:21;;;;;;;;;8.00;5.00;;;;;;;;1975297;28;2746127;-80
2023/06/28 01:57:32;;;;;;;;;6.00;3.33;;;;;;;;2003144;28;1816949;-80
2023/06/28 01:58:42;;;;;;;;;5.00;5.00;;;;;;;;1972891;28;2742953;-80
2023/06/28 01:59:54;;;;;;;;;5.00;4.00;;;;;;;;1999965;28;2754517;-81
2023/06/28 02:01:05;;;;;;;;;5.00;5.00;;;;;;;;1979873;28;2742962;-80
2023/06/28 02:02:16;;;;;;;;;8.00;5.00;;;;;;;;2001876;28;2735735;-80
2023/06/28 02:03:26;;;;;;;;;3.00;3.00;;;;;;;;1982840;28;2754521;-80
2023/06/28 02:04:37;;;;;;;;;6.00;6.00;;;;;;;;1995530;28;2733074;-80
2023/06/28 02:05:48;;;;;;;;;5.00;5.00;;;;;;;;1971000;28;2741356;-80
2023/06/28 02:06:58;;;;;;;;;7.00;5.00;;;;;;;;1990644;28;2748264;-80
2023/06/28 02:08:10;;;;;;;;;7.00;5.67;;;;;;;;1990099;28;2742997;-80
2023/06/28 02:09:20;;;;;;;;;5.67;4.33;;;;;;;;1964014;28;2752354;-80
2023/06/28 02:10:33;;;;;;;;;4.33;4.33;;;;;;;;1993423;28;2745089;-80
2023/06/28 02:11:43;;;;;;;;;9.33;5.00;;;;;;;;1976738;28;3476782;-80
2023/06/28 02:12:54;;;;;;;;;4.33;4.00;;;;;;;;1999244;28;2742971;-80
2023/06/28 02:14:05;;;;;;;;;6.33;4.33;;;;;;;;1990403;28;2740378;-80
2023/06/28 02:15:16;;;;;;;;;4.00;4.00;;;;;;;;1999376;28;2738816;-80
2023/06/28 02:16:31;;;;;;;;;4.20;3.00;;;;;;;;2003332;28;2754435;-80
2023/06/28 02:17:41;;;;;;;;;8.00;5.33;;;;;;;;1950305;28;2743015;-80
2023/06/28 02:18:52;;;;;;;;;7.00;7.00;;;;;;;;1985279;28;2745049;-80
2023/06/28 02:20:10;;;;;;;;;2.00;2.00;;;;;;;;1991576;28;2739228;-80
2023/06/28 02:21:20;;;;;;;;;5.33;4.33;;;;;;;;1979497;28;2746111;-80
2023/06/28 02:22:31;;;;;;;;;5.00;4.00;;;;;;;;2003676;28;2740903;-80
2023/06/28 02:23:41;;;;;;;;;4.00;4.00;;;;;;;;1974118;28;3465882;-80
2023/06/28 02:24:52;;;;;;;;;4.00;4.00;;;;;;;;1992956;28;2754557;-81
2023/06/28 02:26:03;;;;;;;;;4.67;4.00;;;;;;;;1998271;28;2752436;-81
2023/06/28 02:27:14;;;;;;;;;4.33;4.00;;;;;;;;1992879;28;2754472;-81
2023/06/28 02:28:24;;;;;;;;;6.67;5.67;;;;;;;;1982901;28;2746099;-81
2023/06/28 02:29:35;;;;;;;;;5.00;5.00;;;;;;;;1998981;28;2746132;-79
2023/06/28 02:30:46;;;;;;;;;5.33;4.00;;;;;;;;2008889;28;1819027;-81
2023/06/28 02:31:59;;;;;;;;;3.60;3.60;;;;;;;;1982779;28;2749723;-81
2023/06/28 02:33:10;;;;;;;;;6.67;4.00;;;;;;;;1955750;28;2751383;-80
2023/06/28 02:34:21;;;;;;;;;5.33;4.00;;;;;;;;1972965;28;2748258;-81
2023/06/28 02:35:32;;;;;;;;;3.67;3.67;;;;;;;;1996251;28;2755042;-80
2023/06/28 02:36:43;;;;;;;;;6.00;5.00;;;;;;;;1996953;28;2745239;-81
2023/06/28 02:37:53;;;;;;;;;4.33;3.00;;;;;;;;1965561;28;2752380;-80
2023/06/28 02:39:04;;;;;;;;;3.00;3.00;;;;;;;;1991368;28;2741928;-79
2023/06/28 02:40:15;;;;;;;;;4.33;4.00;;;;;;;;1993522;28;2740891;-80
2023/06/28 02:41:26;;;;;;;;;5.00;3.00;;;;;;;;1999828;28;2748277;-80
2023/06/28 02:42:36;;;;;;;;;5.00;5.00;;;;;;;;1998418;28;2750715;-81
2023/06/28 02:43:47;;;;;;;;;5.00;4.33;;;;;;;;1985596;28;2750369;-82
2023/06/28 02:44:58;;;;;;;;;4.00;4.00;;;;;;;;1982952;28;2749232;-82
2023/06/28 02:46:09;;;;;;;;;4.33;4.33;;;;;;;;1993407;28;2736749;-82
2023/06/28 02:47:20;;;;;;;;;6.00;4.00;;;;;;;;1998026;28;2746476;-82
2023/06/28 02:48:30;;;;;;;;;6.00;4.67;;;;;;;;1974374;28;2749788;-81
2023/06/28 02:49:41;;;;;;;;;5.33;5.00;;;;;;;;1999768;28;2746138;-76
2023/06/28 02:50:52;;;;;;;;;4.67;4.67;;;;;;;;1990796;28;2743002;-76
2023/06/28 02:52:03;;;;;;;;;9.33;7.00;;;;;;;;1990518;28;3457521;-77
2023/06/28 02:53:14;;;;;;;;;6.33;5.00;;;;;;;;1985151;28;2750971;-80
2023/06/28 02:54:25;;;;;;;;;4.67;4.00;;;;;;;;1984149;28;2752342;-80
2023/06/28 02:55:36;;;;;;;;;4.67;4.67;;;;;;;;1986623;28;3460681;-81
2023/06/28 02:56:46;;;;;;;;;9.00;5.33;;;;;;;;1981285;28;2757664;-80
2023/06/28 02:57:57;;;;;;;;;8.00;5.33;;;;;;;;1997721;28;3454447;-80
2023/06/28 02:59:08;;;;;;;;;0.33;0.33;;;;;;;;2005102;28;2734650;-81
2023/06/28 03:00:19;;;;;;;;;4.33;4.00;;;;;;;;1980568;28;2744046;-81
2023/06/28 03:01:30;;;;;;;;;5.67;5.67;;;;;;;;1986136;28;3459656;-82
2023/06/28 03:02:40;;;;;;;;;7.00;5.00;;;;;;;;1980498;28;2750310;-81
2023/06/28 03:03:51;;;;;;;;;7.67;5.67;;;;;;;;1993650;28;2748270;-81
2023/06/28 03:05:03;;;;;;;;;4.67;4.67;;;;;;;;1984607;28;2747172;-81
2023/06/28 03:06:16;;;;;;;;;4.50;3.50;;;;;;;;1995398;28;2747125;-81
2023/06/28 03:07:27;;;;;;;;;6.00;6.00;;;;;;;;1953962;28;2743096;-81
2023/06/28 03:08:38;;;;;;;;;3.67;2.00;;;;;;;;1998275;28;2744020;-81
2023/06/28 03:09:49;;;;;;;;;7.50;5.50;;;;;;;;1984319;28;1829595;-81
2023/06/28 03:10:59;;;;;;;;;6.00;5.00;;;;;;;;1971118;28;3458583;-81
2023/06/28 03:12:10;;;;;;;;;7.67;5.00;;;;;;;;1980192;28;3456510;-79
2023/06/28 03:13:21;;;;;;;;;1.00;1.00;;;;;;;;1975194;28;3446084;-80
2023/06/28 03:14:33;;;;;;;;;6.00;4.33;;;;;;;;1985194;28;2742051;-79
2023/06/28 03:15:43;;;;;;;;;5.00;4.00;;;;;;;;1976727;28;2739852;-79
2023/06/28 03:16:54;;;;;;;;;4.33;4.33;;;;;;;;1998698;28;2749343;-81
2023/06/28 03:18:05;;;;;;;;;5.00;4.00;;;;;;;;1992427;28;2750349;-81
2023/06/28 03:19:16;;;;;;;;;6.00;4.00;;;;;;;;2000113;28;3457880;-79
2023/06/28 03:20:27;;;;;;;;;6.33;6.33;;;;;;;;1996199;28;2740977;-79
2023/06/28 03:21:38;;;;;;;;;4.00;1.67;;;;;;;;1996045;28;2746083;-80
2023/06/28 03:22:51;;;;;;;;;7.33;5.83;;;;;;;;1976277;28;2746154;-80
2023/06/28 03:24:01;;;;;;;;;5.00;5.00;;;;;;;;1964956;28;2754516;-79
2023/06/28 03:25:12;;;;;;;;;3.33;3.33;;;;;;;;1987923;28;2748216;-79
2023/06/28 03:26:23;;;;;;;;;4.00;3.00;;;;;;;;1986328;28;2737805;-79
2023/06/28 03:27:34;;;;;;;;;3.33;2.67;;;;;;;;1990985;28;2744012;-81
2023/06/28 03:28:45;;;;;;;;;5.00;3.00;;;;;;;;1991211;28;2745057;-81
2023/06/28 03:29:56;;;;;;;;;5.33;3.00;;;;;;;;2003649;28;2736742;-79
2023/06/28 03:31:08;;;;;;;;;4.20;4.00;;;;;;;;2004550;28;2741928;-79
2023/06/28 03:32:21;;;;;;;;;4.67;3.00;;;;;;;;1983682;28;2738831;-79
2023/06/28 03:33:31;;;;;;;;;4.33;4.00;;;;;;;;1947393;28;2754490;-80
2023/06/28 03:34:42;;;;;;;;;4.33;4.33;;;;;;;;1987921;28;2748218;-77
2023/06/28 03:35:53;;;;;;;;;3.00;3.00;;;;;;;;2000456;28;2738850;-77
2023/06/28 03:37:04;;;;;;;;;7.00;4.00;;;;;;;;1971426;28;3458029;-77
2023/06/28 03:38:15;;;;;;;;;3.00;3.00;;;;;;;;1973208;28;2747148;-77
2023/06/28 03:39:26;;;;;;;;;5.67;4.33;;;;;;;;1975456;28;2750322;-77
2023/06/28 03:40:36;;;;;;;;;4.00;2.33;;;;;;;;1993068;28;2754428;-77
2023/06/28 03:41:47;;;;;;;;;3.33;3.33;;;;;;;;1999766;28;3470548;-77
2023/06/28 03:42:58;;;;;;;;;3.00;3.00;;;;;;;;2000369;28;2741933;-79
2023/06/28 03:44:09;;;;;;;;;2.00;2.00;;;;;;;;1995706;28;2741942;-78
2023/06/28 03:45:20;;;;;;;;;5.33;3.33;;;;;;;;1949281;28;2745069;-78
2023/06/28 03:46:30;;;;;;;;;4.00;4.00;;;;;;;;1980484;28;3453413;-78
2023/06/28 03:47:41;;;;;;;;;5.00;4.00;;;;;;;;1988632;28;2750282;-77
2023/06/28 03:48:52;;;;;;;;;3.00;3.00;;;;;;;;1996518;28;2745070;-76
2023/06/28 03:50:03;;;;;;;;;3.67;3.67;;;;;;;;1999496;28;2746127;-76
2023/06/28 03:51:14;;;;;;;;;4.00;4.00;;;;;;;;1994738;28;3462744;-76
2023/06/28 03:52:25;;;;;;;;;4.33;4.33;;;;;;;;1991639;28;2754480;-76
2023/06/28 03:53:36;;;;;;;;;4.00;4.00;;;;;;;;1989840;28;2750388;-76
2023/06/28 03:54:46;;;;;;;;;4.00;3.00;;;;;;;;1996544;28;2738808;-76
2023/06/28 03:55:57;;;;;;;;;6.67;5.00;;;;;;;;1978081;28;2739950;-76
2023/06/28 03:57:08;;;;;;;;;6.00;3.00;;;;;;;;1983014;28;2748180;-76
2023/06/28 03:58:19;;;;;;;;;3.67;3.33;;;;;;;;2004010;28;2746473;-76
2023/06/28 03:59:29;;;;;;;;;4.67;3.00;;;;;;;;1979336;28;2748257;-76
2023/06/28 04:00:41;;;;;;;;;7.00;5.00;;;;;;;;2000558;28;2746258;-77
2023/06/28 04:01:54;;;;;;;;;3.00;3.00;;;;;;;;2005209;28;2734657;-77
2023/06/28 04:03:05;;;;;;;;;5.33;4.00;;;;;;;;1952031;28;3465866;-77
2023/06/28 04:04:16;;;;;;;;;5.67;4.00;;;;;;;;1983204;28;3461720;-77
2023/06/28 04:05:27;;;;;;;;;5.00;5.00;;;;;;;;1997111;28;2745061;-77
2023/06/28 04:06:37;;;;;;;;;3.67;3.67;;;;;;;;1951121;28;2746114;-77
2023/06/28 04:07:54;;;;;;;;;5.00;5.00;;;;;;;;1991259;28;2746138;-77
2023/06/28 04:09:08;;;;;;;;;6.00;5.33;;;;;;;;2000337;28;2737761;-78
2023/06/28 04:10:18;;;;;;;;;6.00;5.00;;;;;;;;1956796;28;2748285;-77
2023/06/28 04:11:29;;;;;;;;;4.00;2.00;;;;;;;;2004632;28;2741928;-78
2023/06/28 04:12:39;;;;;;;;;6.00;4.00;;;;;;;;1979818;28;3470379;-78
2023/06/28 04:13:50;;;;;;;;;6.33;4.33;;;;;;;;1981335;28;2748223;-77
2023/06/28 04:15:01;;;;;;;;;6.33;3.00;;;;;;;;1989274;28;2740373;-76
2023/06/28 04:16:11;;;;;;;;;7.33;5.33;;;;;;;;1978731;28;3442456;-76
2023/06/28 04:17:22;;;;;;;;;4.33;3.00;;;;;;;;1995212;28;2754496;-76
2023/06/28 04:18:32;;;;;;;;;4.00;4.00;;;;;;;;1972126;28;2754436;-77
2023/06/28 04:19:43;;;;;;;;;4.00;4.00;;;;;;;;2002966;28;2747311;-76
2023/06/28 04:20:54;;;;;;;;;4.00;4.00;;;;;;;;1999117;28;3470031;-76
2023/06/28 04:22:05;;;;;;;;;2.67;2.67;;;;;;;;2003277;28;2737773;-76
2023/06/28 04:23:18;;;;;;;;;5.40;3.80;;;;;;;;2002909;28;2749229;-76
2023/06/28 04:24:31;;;;;;;;;5.00;3.50;;;;;;;;1974063;28;2738250;-76
2023/06/28 04:25:41;;;;;;;;;4.00;3.00;;;;;;;;1952870;28;2750725;-80
2023/06/28 04:26:52;;;;;;;;;5.00;4.00;;;;;;;;2002327;28;2753485;-79
2023/06/28 04:28:03;;;;;;;;;5.00;3.67;;;;;;;;1999298;28;2746189;-79
2023/06/28 04:29:14;;;;;;;;;4.00;4.00;;;;;;;;1980421;28;3465894;-76
2023/06/28 04:30:25;;;;;;;;;4.00;3.33;;;;;;;;1980129;28;2748171;-76
2023/06/28 04:31:36;;;;;;;;;7.00;4.00;;;;;;;;2002593;28;2750328;-76
2023/06/28 04:32:47;;;;;;;;;2.67;2.67;;;;;;;;1995463;28;2736713;-76
2023/06/28 04:33:57;;;;;;;;;4.00;4.00;;;;;;;;1966496;28;2754498;-76
2023/06/28 04:35:09;;;;;;;;;3.00;3.00;;;;;;;;1984994;28;2752356;-77
2023/06/28 04:36:21;;;;;;;;;5.00;2.33;;;;;;;;1978232;28;2752554;-76
2023/06/28 04:37:31;;;;;;;;;6.00;3.67;;;;;;;;1977925;28;2754470;-75
2023/06/28 04:38:42;;;;;;;;;4.00;3.67;;;;;;;;1989356;28;2741460;-76
2023/06/28 04:39:54;;;;;;;;;4.00;3.00;;;;;;;;1996052;28;2741965;-79
2023/06/28 04:41:04;;;;;;;;;4.33;3.33;;;;;;;;1968973;28;2752392;-78
2023/06/28 04:42:16;;;;;;;;;4.75;3.00;;;;;;;;1995820;28;2749328;-78
2023/06/28 04:43:40;;;;;;;;;3.67;2.83;;;;;;;;1995869;28;2739878;-78
2023/06/28 04:44:54;;;;;;;;;3.00;3.00;;;;;;;;1973833;28;2738804;-79
2023/06/28 04:46:05;;;;;;;;;5.00;4.33;;;;;;;;1947267;28;2752386;-80
2023/06/28 04:47:16;;;;;;;;;6.33;5.00;;;;;;;;1980258;28;2747230;-80
2023/06/28 04:48:27;;;;;;;;;6.50;4.75;;;;;;;;2004063;28;2747141;-78
2023/06/28 04:49:38;;;;;;;;;6.00;3.00;;;;;;;;1946336;28;2748163;-77
2023/06/28 04:50:49;;;;;;;;;4.00;4.00;;;;;;;;1969904;28;2745152;-77
2023/06/28 04:52:00;;;;;;;;;3.00;3.00;;;;;;;;1984496;28;3466932;-77
2023/06/28 04:53:11;;;;;;;;;3.33;3.33;;;;;;;;1963495;28;2755082;-77
2023/06/28 04:54:21;;;;;;;;;3.33;3.00;;;;;;;;1992499;28;3470067;-76
2023/06/28 04:55:34;;;;;;;;;5.00;3.00;;;;;;;;1988924;28;2746202;-75
2023/06/28 04:56:47;;;;;;;;;4.67;4.00;;;;;;;;1998674;28;2740918;-75
2023/06/28 04:57:57;;;;;;;;;6.00;4.33;;;;;;;;1945727;28;2754494;-76
2023/06/28 04:59:08;;;;;;;;;5.00;3.67;;;;;;;;1994964;28;2750256;-76
2023/06/28 05:00:19;;;;;;;;;4.00;4.00;;;;;;;;1980321;28;2744009;-76
2023/06/28 05:01:30;;;;;;;;;5.67;4.67;;;;;;;;1991028;28;2745101;-76
2023/06/28 05:02:43;;;;;;;;;4.00;3.60;;;;;;;;1996117;28;2734662;-75
2023/06/28 05:03:56;;;;;;;;;4.00;4.00;;;;;;;;2000519;28;2737789;-75
2023/06/28 05:05:06;;;;;;;;;4.33;4.33;;;;;;;;1942629;28;2750727;-75
2023/06/28 05:06:17;;;;;;;;;4.00;4.00;;;;;;;;1987999;28;2754519;-76
2023/06/28 05:07:28;;;;;;;;;4.33;3.00;;;;;;;;1979031;28;2742035;-75
2023/06/28 05:08:39;;;;;;;;;3.33;3.33;;;;;;;;1987355;28;2746102;-76
2023/06/28 05:09:49;;;;;;;;;6.00;4.00;;;;;;;;1971675;28;2748186;-75
2023/06/28 05:11:01;;;;;;;;;3.33;3.33;;;;;;;;1993744;28;2752451;-75
2023/06/28 05:12:11;;;;;;;;;3.33;3.33;;;;;;;;1971670;28;2743067;-75
2023/06/28 05:13:22;;;;;;;;;5.00;3.67;;;;;;;;1983816;28;2749279;-76
2023/06/28 05:14:33;;;;;;;;;5.00;5.00;;;;;;;;1989882;28;2742112;-75
2023/06/28 05:15:44;;;;;;;;;4.33;4.33;;;;;;;;1995461;28;2751711;-75
2023/06/28 05:16:54;;;;;;;;;4.33;3.67;;;;;;;;1974415;28;2750385;-75
2023/06/28 05:18:05;;;;;;;;;5.67;4.67;;;;;;;;1989624;28;2747169;-75
2023/06/28 05:19:16;;;;;;;;;5.00;4.00;;;;;;;;1988700;28;2752368;-75
2023/06/28 05:20:28;;;;;;;;;6.00;4.00;;;;;;;;1986070;28;2735675;-75
2023/06/28 05:21:39;;;;;;;;;5.33;4.00;;;;;;;;1965624;28;2752336;-75
2023/06/28 05:23:07;;;;;;;;;3.33;3.33;;;;;;;;1986620;28;2753531;-75
2023/06/28 05:24:20;;;;;;;;;6.00;3.83;;;;;;;;1996172;28;2742272;-75
2023/06/28 05:25:30;;;;;;;;;5.00;5.00;;;;;;;;1948124;28;2746086;-76
2023/06/28 05:26:41;;;;;;;;;5.00;4.00;;;;;;;;1999865;28;2754516;-75
2023/06/28 05:27:52;;;;;;;;;5.00;4.00;;;;;;;;1989647;28;2750276;-75
2023/06/28 05:29:03;;;;;;;;;4.00;3.67;;;;;;;;1996291;28;2736733;-76
2023/06/28 05:30:13;;;;;;;;;7.00;3.33;;;;;;;;1975492;28;2754629;-80
2023/06/28 05:31:24;;;;;;;;;4.67;4.00;;;;;;;;1970453;28;2752354;-76
2023/06/28 05:32:35;;;;;;;;;4.00;4.00;;;;;;;;1988613;28;2748205;-76
2023/06/28 05:33:46;;;;;;;;;3.33;3.33;;;;;;;;1989757;28;2750263;-75
2023/06/28 05:34:56;;;;;;;;;2.67;2.33;;;;;;;;1989540;28;3435703;-76
2023/06/28 05:36:07;;;;;;;;;5.00;4.00;;;;;;;;1988003;28;2750256;-76
2023/06/28 05:37:18;;;;;;;;;6.00;6.00;;;;;;;;1995103;28;2741380;-75
2023/06/28 05:38:29;;;;;;;;;13.00;7.00;;;;;;;;1970284;28;2762765;-76
2023/06/28 05:39:40;;;;;;;;;12.00;7.00;;;;;;;;1993846;28;3480492;-75
2023/06/28 05:40:55;;;;;;;;;7.75;7.25;;;;;;;;2001565;28;1814894;-75
2023/06/28 05:42:05;;;;;;;;;7.67;7.33;;;;;;;;1969960;28;3455474;-76
2023/06/28 05:43:16;;;;;;;;;10.00;6.00;;;;;;;;1991557;28;2754469;-75
2023/06/28 05:44:27;;;;;;;;;7.00;5.00;;;;;;;;1993030;28;2746064;-76
2023/06/28 05:45:38;;;;;;;;;10.67;6.00;;;;;;;;1991388;28;3478354;-75
2023/06/28 05:46:49;;;;;;;;;3.33;3.33;;;;;;;;1990045;28;3453350;-76
2023/06/28 05:47:59;;;;;;;;;5.33;4.00;;;;;;;;1984965;28;2750253;-76
2023/06/28 05:49:11;;;;;;;;;4.67;3.33;;;;;;;;1991253;28;3470060;-76
2023/06/28 05:50:21;;;;;;;;;4.00;4.00;;;;;;;;1981047;28;2746123;-75
2023/06/28 05:51:32;;;;;;;;;4.33;4.00;;;;;;;;1978337;28;2752542;-76
2023/06/28 05:52:43;;;;;;;;;6.00;3.00;;;;;;;;1974974;28;2750342;-76
2023/06/28 05:53:54;;;;;;;;;4.00;4.00;;;;;;;;1969723;28;3459647;-75
2023/06/28 05:55:05;;;;;;;;;6.33;4.33;;;;;;;;1999086;28;3456514;-75
2023/06/28 05:56:15;;;;;;;;;8.00;5.00;;;;;;;;1984600;28;2746127;-75
2023/06/28 05:57:26;;;;;;;;;5.33;4.33;;;;;;;;1994537;28;2745038;-75
2023/06/28 05:58:37;;;;;;;;;6.00;5.00;;;;;;;;2003458;28;2736731;-75
2023/06/28 05:59:47;;;;;;;;;6.00;3.67;;;;;;;;1971850;28;2748192;-76
2023/06/28 06:00:59;;;;;;;;;4.33;4.33;;;;;;;;2003336;28;1816920;-75
2023/06/28 06:02:09;;;;;;;;;9.67;6.00;;;;;;;;1978573;28;3469017;-75
2023/06/28 06:03:20;;;;;;;;;5.00;4.00;;;;;;;;1994309;28;2752521;-77
2023/06/28 06:04:31;;;;;;;;;5.00;5.00;;;;;;;;1989058;28;2751291;-76
2023/06/28 06:05:42;;;;;;;;;7.00;6.00;;;;;;;;1989647;28;2745133;-76
2023/06/28 06:06:53;;;;;;;;;7.33;5.00;;;;;;;;1993449;28;2746172;-76
2023/06/28 06:08:04;;;;;;;;;6.67;6.00;;;;;;;;1988765;28;2745140;-75
2023/06/28 06:09:17;;;;;;;;;6.33;5.67;;;;;;;;1993552;28;2742974;-76
2023/06/28 06:10:28;;;;;;;;;6.67;6.00;;;;;;;;1972973;28;2742959;-76
2023/06/28 06:11:39;;;;;;;;;4.33;2.33;;;;;;;;1991004;28;2740883;-76
2023/06/28 06:12:50;;;;;;;;;6.00;4.67;;;;;;;;1982669;28;2737817;-76
2023/06/28 06:14:01;;;;;;;;;4.00;3.00;;;;;;;;1961928;28;2750316;-76
2023/06/28 06:15:12;;;;;;;;;7.00;4.00;;;;;;;;1976139;28;2742054;-76
2023/06/28 06:16:22;;;;;;;;;6.00;5.00;;;;;;;;1963082;28;2752382;-76
2023/06/28 06:17:33;;;;;;;;;4.67;4.33;;;;;;;;1990980;28;2737781;-76
2023/06/28 06:18:44;;;;;;;;;7.00;4.00;;;;;;;;1991149;28;2750300;-76
2023/06/28 06:19:55;;;;;;;;;5.00;5.00;;;;;;;;1990408;28;3458622;-76
2023/06/28 06:21:06;;;;;;;;;5.00;5.00;;;;;;;;1986445;28;2746095;-76
2023/06/28 06:22:17;;;;;;;;;7.33;5.00;;;;;;;;1971560;28;3459615;-76
2023/06/28 06:23:28;;;;;;;;;6.00;4.00;;;;;;;;1995813;28;2754565;-76
2023/06/28 06:24:39;;;;;;;;;4.33;4.00;;;;;;;;1976524;28;2747172;-76
2023/06/28 06:25:50;;;;;;;;;6.00;4.33;;;;;;;;1978730;28;2741969;-76
2023/06/28 06:27:00;;;;;;;;;4.67;4.67;;;;;;;;1958276;28;2740887;-75
2023/06/28 06:28:11;;;;;;;;;5.00;4.00;;;;;;;;1997974;28;2745101;-76
2023/06/28 06:29:23;;;;;;;;;8.25;6.75;;;;;;;;2002895;28;2737220;-75
2023/06/28 06:30:33;;;;;;;;;4.00;4.00;;;;;;;;1973210;28;3458986;-75
2023/06/28 06:31:44;;;;;;;;;5.67;5.00;;;;;;;;1996360;28;2740935;-75
2023/06/28 06:32:55;;;;;;;;;7.75;6.00;;;;;;;;1992700;28;1817522;-76
2023/06/28 06:34:08;;;;;;;;;5.50;5.17;;;;;;;;1988783;28;2737796;-76
2023/06/28 06:35:21;;;;;;;;;5.00;5.00;;;;;;;;1972737;28;2739849;-75
2023/06/28 06:36:31;;;;;;;;;5.00;5.00;;;;;;;;1946179;28;3454419;-75
2023/06/28 06:37:45;;;;;;;;;5.33;3.33;;;;;;;;1995198;28;2750279;-75
2023/06/28 06:38:56;;;;;;;;;5.00;5.00;;;;;;;;1978000;28;2754550;-76
2023/06/28 06:40:07;;;;;;;;;7.67;5.00;;;;;;;;1982613;28;2746174;-76
2023/06/28 06:41:17;;;;;;;;;7.00;5.00;;;;;;;;1971949;28;2747243;-75
2023/06/28 06:42:28;;;;;;;;;7.00;5.00;;;;;;;;1977214;28;2752464;-77
2023/06/28 06:43:39;;;;;;;;;4.33;4.00;;;;;;;;1989875;28;3453381;-76
2023/06/28 06:44:50;;;;;;;;;6.00;4.33;;;;;;;;1994534;28;2752487;-76
2023/06/28 06:46:01;;;;;;;;;3.00;3.00;;;;;;;;1983147;28;3451638;-76
2023/06/28 06:47:12;;;;;;;;;5.33;5.00;;;;;;;;1973144;28;2746178;-76
2023/06/28 06:48:23;;;;;;;;;5.00;5.00;;;;;;;;1978190;28;2739951;-76
2023/06/28 06:49:33;;;;;;;;;7.33;4.00;;;;;;;;1970943;28;2748244;-76
2023/06/28 06:50:44;;;;;;;;;2.00;1.33;;;;;;;;1986819;28;2731531;-76
2023/06/28 06:51:55;;;;;;;;;9.00;5.00;;;;;;;;1965731;28;2745076;-76
2023/06/28 06:53:05;;;;;;;;;4.33;2.33;;;;;;;;1994210;28;2744048;-76
2023/06/28 06:54:16;;;;;;;;;5.00;5.00;;;;;;;;1971863;28;2746171;-76